Fern, Iowa
Current Conditions -  °F | °C
As of 8:54 AM on Friday 31 Oct 2014 (Local Time) from KALO Reporting Station
Clear Clear  
Wind Chill: 16°   Ceiling: Unl
Heat Index: 29°   Visibility: 10mi
Dew Point: 18°   Wind: 20mph
Humidity: 64%   Direction: 350°N
Pressure: 30.42"   Gusts: 28mph
Location:  42.5787°N, 92.7634°W
Report Text: KALO 311354Z 35017G24KT 10SM CLR M02/M08 A3042 RMK AO2 SLP308 T10171078
Loading
Personal Weather Stations






























Interactive Weather Map
Tropical Storm Tracking
New forecast layout! Learn more

10-Day Weather Forecast

Advertisements
Track Severe Weather on mobile